createdAt,value
2022-09-14T00:01:31.601Z,8.80
2022-09-14T00:05:37.586Z,7.70
2022-09-14T00:09:39.762Z,7.03
2022-09-14T00:13:46.844Z,7.15
2022-09-14T00:17:49.011Z,5.55
2022-09-14T00:21:59.350Z,5.55
2022-09-14T00:26:07.289Z,7.75
2022-09-14T00:30:10.325Z,6.45
2022-09-14T00:34:16.843Z,8.48
2022-09-14T00:38:18.986Z,7.47
2022-09-14T00:42:21.245Z,8.15
2022-09-14T00:46:25.607Z,6.05
2022-09-14T00:50:29.044Z,11.35
2022-09-14T00:54:31.945Z,10.15
2022-09-14T00:58:34.005Z,6.65
2022-09-14T01:02:36.842Z,7.78
2022-09-14T01:07:07.162Z,8.48
2022-09-14T01:11:31.365Z,7.90
2022-09-14T01:16:05.713Z,11.13
2022-09-14T01:20:14.416Z,12.82
2022-09-14T01:24:36.197Z,10.02
2022-09-14T01:28:51.121Z,14.00
2022-09-14T01:33:12.278Z,13.10
2022-09-14T01:37:39.262Z,14.77
2022-09-14T01:41:43.988Z,14.23
2022-09-14T01:46:10.632Z,21.13
2022-09-14T01:50:39.005Z,15.95
2022-09-14T01:54:46.310Z,24.92
2022-09-14T01:58:58.138Z,20.48
2022-09-14T02:03:43.259Z,18.67
2022-09-14T02:07:45.791Z,23.90
2022-09-14T02:12:08.377Z,17.30
2022-09-14T02:16:10.822Z,23.63
2022-09-14T02:20:29.043Z,36.83
2022-09-14T02:24:31.442Z,30.10
2022-09-14T02:28:33.764Z,43.80
2022-09-14T02:32:35.638Z,46.47
2022-09-14T02:37:00.838Z,34.75
2022-09-14T02:41:26.808Z,32.35
2022-09-14T02:45:51.850Z,42.20
2022-09-14T02:50:30.139Z,43.70
2022-09-14T02:55:04.632Z,59.30
2022-09-14T02:59:06.685Z,86.72
2022-09-14T03:03:11.243Z,59.55
2022-09-14T03:07:13.262Z,54.92
2022-09-14T03:11:16.078Z,62.95
2022-09-14T03:15:18.198Z,59.05
2022-09-14T03:19:20.570Z,58.83
2022-09-14T03:23:22.556Z,81.32
2022-09-14T03:27:24.881Z,89.60
2022-09-14T03:31:27.679Z,92.95
2022-09-14T03:35:31.610Z,79.15
2022-09-14T03:39:33.777Z,88.97
2022-09-14T03:43:36.145Z,104.75
2022-09-14T03:47:39.059Z,109.72
2022-09-14T03:51:41.274Z,79.75
2022-09-14T03:55:43.186Z,70.90
2022-09-14T03:59:45.403Z,67.30
2022-09-14T04:03:47.885Z,79.07
2022-09-14T04:07:50.187Z,70.10
2022-09-14T04:11:52.322Z,55.58
2022-09-14T04:16:01.475Z,100.32
2022-09-14T04:20:04.209Z,68.65
2022-09-14T04:24:15.892Z,97.18
2022-09-14T04:28:20.652Z,80.40
2022-09-14T04:32:23.322Z,77.50
2022-09-14T04:36:28.590Z,79.45
2022-09-14T04:40:31.317Z,126.85
2022-09-14T04:44:33.497Z,111.15
2022-09-14T04:48:36.373Z,92.53
2022-09-14T04:52:38.730Z,69.30
2022-09-14T04:56:41.600Z,103.75
2022-09-14T05:00:43.634Z,75.80
2022-09-14T05:04:45.954Z,85.22
2022-09-14T05:08:49.311Z,81.43
2022-09-14T05:12:51.664Z,86.63
2022-09-14T05:16:53.652Z,77.32
2022-09-14T05:20:55.798Z,79.60
2022-09-14T05:24:57.818Z,65.55
2022-09-14T05:29:02.138Z,58.20
2022-09-14T05:33:04.055Z,62.83
2022-09-14T05:37:06.485Z,69.47
2022-09-14T05:41:12.317Z,60.58
2022-09-14T05:45:14.488Z,69.78
2022-09-14T05:49:16.482Z,76.65
2022-09-14T05:53:18.595Z,58.67
2022-09-14T05:57:20.587Z,58.53
2022-09-14T06:01:28.405Z,69.07
2022-09-14T06:05:31.726Z,58.72
2022-09-14T06:09:34.184Z,53.70
2022-09-14T06:13:37.258Z,66.72
2022-09-14T06:17:39.796Z,57.15
2022-09-14T06:21:43.214Z,58.25
2022-09-14T06:25:45.438Z,58.42
2022-09-14T06:29:52.215Z,60.60
2022-09-14T06:33:54.522Z,61.20
2022-09-14T06:37:56.498Z,66.53
2022-09-14T06:41:58.798Z,58.20
2022-09-14T06:46:07.562Z,55.58
2022-09-14T06:50:09.976Z,68.53
2022-09-14T06:54:14.125Z,60.75
2022-09-14T06:58:16.644Z,68.90
2022-09-14T07:02:18.698Z,66.53
2022-09-14T07:06:24.214Z,63.30
2022-09-14T07:10:28.355Z,64.40
2022-09-14T07:14:32.437Z,58.42
2022-09-14T07:18:35.968Z,51.75
2022-09-14T07:22:38.286Z,46.33
2022-09-14T07:26:44.884Z,52.65
2022-09-14T07:30:48.618Z,48.60
2022-09-14T07:34:50.663Z,45.75
2022-09-14T07:38:53.868Z,39.15
2022-09-14T07:42:57.768Z,39.10
2022-09-14T07:47:00.405Z,41.05
2022-09-14T07:51:07.025Z,43.40
2022-09-14T07:55:12.194Z,35.95
2022-09-14T07:59:35.017Z,37.92
2022-09-14T08:03:38.844Z,37.78
2022-09-14T08:07:40.724Z,30.65
2022-09-14T08:11:42.845Z,28.85
2022-09-14T08:15:45.563Z,30.02
2022-09-14T08:19:48.334Z,25.10
2022-09-14T08:23:50.468Z,22.33
2022-09-14T08:27:52.618Z,21.52
2022-09-14T08:31:54.765Z,21.40
2022-09-14T08:35:58.331Z,22.50
2022-09-14T08:40:00.551Z,20.90
2022-09-14T08:44:10.975Z,21.40
2022-09-14T08:48:49.319Z,14.23
2022-09-14T08:52:53.419Z,13.45
2022-09-14T08:57:13.024Z,18.90
2022-09-14T09:01:20.537Z,15.63
2022-09-14T09:05:44.195Z,13.25
2022-09-14T09:09:52.412Z,14.85
2022-09-14T09:13:56.386Z,15.85
2022-09-14T09:18:21.629Z,10.90
2022-09-14T09:22:26.607Z,13.77
2022-09-14T09:26:31.858Z,14.38
2022-09-14T09:30:33.827Z,15.02
2022-09-14T09:34:36.640Z,13.23
2022-09-14T09:38:47.255Z,16.67
2022-09-14T09:43:29.007Z,16.02
2022-09-14T09:47:42.356Z,13.82
2022-09-14T09:51:44.854Z,12.98
2022-09-14T09:55:51.351Z,14.80
2022-09-14T10:00:20.160Z,13.40
2022-09-14T10:04:28.894Z,11.80
2022-09-14T10:08:35.217Z,11.20
2022-09-14T10:12:39.338Z,13.65
2022-09-14T10:16:42.184Z,15.18
2022-09-14T10:20:53.250Z,13.23
2022-09-14T10:24:56.982Z,9.90
2022-09-14T10:29:25.550Z,17.17
2022-09-14T10:33:28.861Z,12.63
2022-09-14T10:37:42.714Z,11.07
2022-09-14T10:41:48.235Z,10.68
2022-09-14T10:45:53.078Z,10.68
2022-09-14T10:50:25.390Z,11.85
2022-09-14T10:55:00.744Z,9.00
2022-09-14T10:59:29.636Z,7.28
2022-09-14T11:03:56.055Z,7.97
2022-09-14T11:08:11.759Z,9.00
2022-09-14T11:12:31.225Z,8.27
2022-09-14T11:17:07.359Z,8.93
2022-09-14T11:21:32.064Z,8.02
2022-09-14T11:26:03.758Z,5.80
2022-09-14T11:30:20.596Z,7.25
2022-09-14T11:34:22.897Z,6.50
2022-09-14T11:38:29.808Z,6.30
2022-09-14T11:42:50.778Z,5.93
2022-09-14T11:47:09.946Z,9.60
2022-09-14T11:51:17.585Z,4.15
2022-09-14T11:55:19.978Z,7.32
2022-09-14T11:59:50.461Z,6.80
2022-09-14T12:03:57.147Z,5.82
2022-09-14T12:08:02.285Z,9.50
2022-09-14T12:12:08.139Z,5.65
2022-09-14T12:16:10.563Z,6.32
2022-09-14T12:20:37.489Z,7.43
2022-09-14T12:24:39.926Z,9.00
2022-09-14T12:28:50.587Z,7.32
2022-09-14T12:32:53.598Z,5.45
2022-09-14T12:36:59.189Z,5.53
2022-09-14T12:41:11.204Z,4.10
2022-09-14T12:45:49.765Z,5.28
2022-09-14T12:50:05.286Z,6.97
2022-09-14T12:54:18.423Z,3.88
2022-09-14T12:58:46.716Z,4.13
2022-09-14T13:03:00.135Z,4.95
2022-09-14T13:07:06.398Z,6.97
2022-09-14T13:11:09.526Z,6.68
2022-09-14T13:15:25.709Z,5.60
2022-09-14T13:19:30.521Z,11.70
2022-09-14T13:23:39.001Z,5.70
2022-09-14T13:27:41.335Z,5.15
2022-09-14T13:31:45.395Z,6.38
2022-09-14T13:36:02.858Z,6.63
2022-09-14T13:40:06.938Z,8.45
2022-09-14T13:44:09.087Z,7.18
2022-09-14T13:48:14.959Z,8.95
2022-09-14T13:52:22.719Z,9.60
2022-09-14T13:56:33.261Z,6.77
2022-09-14T14:00:58.722Z,5.68
2022-09-14T14:05:01.561Z,7.68
2022-09-14T14:09:11.330Z,7.15
2022-09-14T14:13:13.558Z,8.77
2022-09-14T14:17:37.025Z,9.23
2022-09-14T14:21:39.418Z,5.93
2022-09-14T14:25:46.183Z,7.68
2022-09-14T14:29:52.421Z,4.40
2022-09-14T14:33:56.184Z,7.47
2022-09-14T14:37:58.850Z,7.68
2022-09-14T14:42:02.408Z,7.15
2022-09-14T14:46:07.022Z,7.32
2022-09-14T14:50:20.876Z,8.90
2022-09-14T14:54:23.852Z,10.68
2022-09-14T14:58:26.074Z,6.88
2022-09-14T15:02:28.315Z,6.53
2022-09-14T15:06:30.290Z,10.18
2022-09-14T15:10:32.684Z,8.15
2022-09-14T15:14:35.065Z,9.60
2022-09-14T15:18:37.225Z,9.55
2022-09-14T15:22:42.496Z,101.93
2022-09-14T15:26:44.877Z,42.03
2022-09-14T15:30:46.848Z,6.25
2022-09-14T15:34:49.101Z,9.95
2022-09-14T15:38:51.059Z,8.88
2022-09-14T15:42:53.716Z,5.32
2022-09-14T15:46:56.558Z,4.88
2022-09-14T15:51:00.799Z,6.63
2022-09-14T15:55:04.980Z,10.98
2022-09-14T15:59:07.791Z,27.05
2022-09-14T16:03:10.392Z,41.40
2022-09-14T16:07:13.201Z,33.40
2022-09-14T16:11:15.190Z,41.03
2022-09-14T16:15:17.612Z,48.97
2022-09-14T16:19:19.622Z,115.15
2022-09-14T16:23:22.190Z,44.65
2022-09-14T16:27:24.535Z,93.47
2022-09-14T16:31:30.275Z,596.05
2022-09-14T16:35:32.487Z,777.72
2022-09-14T16:39:35.196Z,536.38
2022-09-14T16:43:37.375Z,496.67
2022-09-14T16:47:39.966Z,269.33
2022-09-14T16:51:42.265Z,246.52
2022-09-14T16:55:44.406Z,156.45
2022-09-14T16:59:46.887Z,132.43
2022-09-14T17:03:50.963Z,133.95
2022-09-14T17:07:52.949Z,137.20
2022-09-14T17:11:56.523Z,99.60
2022-09-14T17:16:02.471Z,46.92
2022-09-14T17:20:05.429Z,48.75
2022-09-14T17:24:08.298Z,14.73
2022-09-14T17:28:10.650Z,22.75
2022-09-14T17:32:15.081Z,20.70
2022-09-14T17:36:17.330Z,18.75
2022-09-14T17:40:19.339Z,27.15
2022-09-14T17:44:25.831Z,26.50
2022-09-14T17:48:31.315Z,21.00
2022-09-14T17:52:35.397Z,22.55
2022-09-14T17:56:37.480Z,22.25
2022-09-14T18:00:39.727Z,26.33
2022-09-14T18:04:44.317Z,24.90
2022-09-14T18:08:55.263Z,32.30
2022-09-14T18:12:57.302Z,27.77
2022-09-14T18:16:59.983Z,26.00
2022-09-14T18:21:02.633Z,19.38
2022-09-14T18:25:06.704Z,18.00
2022-09-14T18:29:08.664Z,19.30
2022-09-14T18:33:11.106Z,14.32
2022-09-14T18:37:13.548Z,12.30
2022-09-14T18:41:17.281Z,18.08
2022-09-14T18:45:19.443Z,13.63
2022-09-14T18:49:21.875Z,8.70
2022-09-14T18:53:23.954Z,15.00
2022-09-14T18:57:26.767Z,9.50
2022-09-14T19:01:29.048Z,9.05
2022-09-14T19:05:32.010Z,11.45
2022-09-14T19:09:34.315Z,12.85
2022-09-14T19:13:38.093Z,17.17
2022-09-14T19:17:40.395Z,23.73
2022-09-14T19:21:44.036Z,24.13
2022-09-14T19:25:46.154Z,22.73
2022-09-14T19:29:48.422Z,22.30
2022-09-14T19:33:51.282Z,24.02
2022-09-14T19:37:55.058Z,23.08
2022-09-14T19:41:57.316Z,18.42
2022-09-14T19:46:08.072Z,20.83
2022-09-14T19:50:10.483Z,20.95
2022-09-14T19:54:14.475Z,22.13
2022-09-14T19:58:16.501Z,22.52
2022-09-14T20:02:18.851Z,21.45
2022-09-14T20:06:26.064Z,24.50
2022-09-14T20:10:28.336Z,26.20
2022-09-14T20:14:30.614Z,26.83
2022-09-14T20:18:32.831Z,49.80
2022-09-14T20:22:34.816Z,62.10
2022-09-14T20:26:37.062Z,40.13
2022-09-14T20:30:38.990Z,44.25
2022-09-14T20:34:41.405Z,37.58
2022-09-14T20:38:49.667Z,34.90
2022-09-14T20:42:52.411Z,34.55
2022-09-14T20:46:54.532Z,38.63
2022-09-14T20:50:57.817Z,52.88
2022-09-14T20:54:59.884Z,46.85
2022-09-14T20:59:04.674Z,39.20
2022-09-14T21:03:06.782Z,39.25
2022-09-14T21:07:10.979Z,35.15
2022-09-14T21:11:20.147Z,36.78
2022-09-14T21:15:22.708Z,31.35
2022-09-14T21:19:27.670Z,25.08
2022-09-14T21:23:29.898Z,26.85
2022-09-14T21:27:32.220Z,21.92
2022-09-14T21:31:36.602Z,27.33
2022-09-14T21:35:38.615Z,30.35
2022-09-14T21:39:40.809Z,25.70
2022-09-14T21:43:42.999Z,30.20
2022-09-14T21:47:45.170Z,34.10
2022-09-14T21:51:51.337Z,30.73
2022-09-14T21:56:00.899Z,31.23
2022-09-14T22:00:09.205Z,24.60
2022-09-14T22:04:15.256Z,25.52
2022-09-14T22:08:17.225Z,23.40
2022-09-14T22:24:23.104Z,29.08
2022-09-14T22:28:25.984Z,23.30
2022-09-14T22:32:27.897Z,20.40
2022-09-14T22:36:30.242Z,20.10
2022-09-14T22:40:32.451Z,18.58
2022-09-14T22:44:34.658Z,20.10
2022-09-14T22:48:37.326Z,34.03
2022-09-14T22:52:39.664Z,27.65
2022-09-14T22:56:41.822Z,25.90
2022-09-14T23:00:44.885Z,23.70
2022-09-14T23:04:48.698Z,20.98
2022-09-14T23:08:50.910Z,22.17
2022-09-14T23:12:53.113Z,21.63
2022-09-14T23:16:55.366Z,27.15
2022-09-14T23:20:57.325Z,20.50
2022-09-14T23:24:59.485Z,20.50
2022-09-14T23:29:05.140Z,18.88
2022-09-14T23:33:07.361Z,20.75
2022-09-14T23:37:09.378Z,21.42
2022-09-14T23:41:11.720Z,23.92
2022-09-14T23:45:14.685Z,24.38
2022-09-14T23:49:17.320Z,31.77
2022-09-14T23:53:19.225Z,37.80
2022-09-14T23:57:21.784Z,35.67
